createdAt,value
2017-05-01T00:00:08.141Z,60.78
2017-05-01T00:01:08.191Z,60.81
2017-05-01T00:02:08.215Z,60.71
2017-05-01T00:03:08.153Z,60.97
2017-05-01T00:04:08.229Z,60.97
2017-05-01T00:05:08.180Z,61.22
2017-05-01T00:06:08.203Z,61.53
2017-05-01T00:07:08.185Z,61.97
2017-05-01T00:08:08.207Z,62.22
2017-05-01T00:09:08.147Z,62.38
2017-05-01T00:10:08.187Z,62.50
2017-05-01T00:11:08.136Z,62.53
2017-05-01T00:12:08.134Z,61.99
2017-05-01T00:13:08.128Z,62.07
2017-05-01T00:14:08.244Z,62.38
2017-05-01T00:15:08.183Z,62.33
2017-05-01T00:16:08.196Z,62.66
2017-05-01T00:17:08.200Z,62.92
2017-05-01T00:18:08.221Z,63.28
2017-05-01T00:19:08.200Z,63.46
2017-05-01T00:20:08.199Z,63.46
2017-05-01T00:21:08.177Z,63.56
2017-05-01T00:22:08.214Z,63.87
2017-05-01T00:23:08.157Z,63.95
2017-05-01T00:24:08.197Z,64.10
2017-05-01T00:25:08.195Z,63.87
2017-05-01T00:26:08.216Z,63.87
2017-05-01T00:27:08.149Z,64.31
2017-05-01T00:28:08.157Z,64.36
2017-05-01T00:29:08.162Z,64.23
2017-05-01T00:30:08.162Z,64.44
2017-05-01T00:31:08.187Z,64.44
2017-05-01T00:32:08.267Z,64.38
2017-05-01T00:33:08.237Z,64.34
2017-05-01T00:34:08.218Z,64.49
2017-05-01T00:35:08.190Z,64.49
2017-05-01T00:36:08.280Z,64.57
2017-05-01T00:37:08.173Z,64.93
2017-05-01T00:38:08.253Z,64.85
2017-05-01T00:39:08.248Z,65.06
2017-05-01T00:40:08.205Z,65.14
2017-05-01T00:41:08.189Z,65.47
2017-05-01T00:42:08.234Z,65.58
2017-05-01T00:43:08.285Z,65.65
2017-05-01T00:44:08.186Z,65.78
2017-05-01T00:45:08.203Z,65.76
2017-05-01T00:46:08.214Z,65.42
2017-05-01T00:47:08.213Z,65.32
2017-05-01T00:48:08.199Z,65.03
2017-05-01T00:49:08.275Z,64.88
2017-05-01T00:50:08.237Z,65.06
2017-05-01T00:51:08.280Z,65.01
2017-05-01T00:52:08.202Z,64.88
2017-05-01T00:53:08.236Z,65.06
2017-05-01T00:54:08.240Z,64.59
2017-05-01T00:55:08.249Z,64.88
2017-05-01T00:56:08.241Z,64.98
2017-05-01T00:57:08.269Z,65.01
2017-05-01T00:58:08.270Z,64.67
2017-05-01T00:59:08.186Z,64.93
2017-05-01T01:00:08.194Z,64.93
2017-05-01T01:01:08.242Z,65.22
2017-05-01T01:02:08.168Z,65.42
2017-05-01T01:03:08.203Z,65.50
2017-05-01T01:04:08.269Z,65.62
2017-05-01T01:05:08.186Z,66.01
2017-05-01T01:06:08.246Z,65.76
2017-05-01T01:07:08.171Z,65.70
2017-05-01T01:08:08.234Z,66.04
2017-05-01T01:09:08.239Z,66.04
2017-05-01T01:10:08.241Z,66.22
2017-05-01T01:11:08.216Z,66.40
2017-05-01T01:12:08.173Z,66.53
2017-05-01T01:13:08.207Z,66.53
2017-05-01T01:14:08.182Z,66.58
2017-05-01T01:15:08.164Z,65.96
2017-05-01T01:16:08.208Z,66.12
2017-05-01T01:17:08.184Z,66.09
2017-05-01T01:18:08.177Z,66.14
2017-05-01T01:19:08.263Z,66.37
2017-05-01T01:20:08.250Z,66.20
2017-05-01T01:21:08.217Z,66.09
2017-05-01T01:22:08.197Z,65.89
2017-05-01T01:23:08.244Z,65.94
2017-05-01T01:24:08.221Z,65.94
2017-05-01T01:25:08.220Z,65.99
2017-05-01T01:26:08.178Z,66.09
2017-05-01T01:27:08.247Z,65.96
2017-05-01T01:28:08.191Z,65.86
2017-05-01T01:29:08.250Z,65.76
2017-05-01T01:30:08.200Z,66.04
2017-05-01T01:31:08.258Z,66.01
2017-05-01T01:32:08.280Z,66.14
2017-05-01T01:33:08.242Z,66.20
2017-05-01T01:34:08.316Z,66.40
2017-05-01T01:35:08.284Z,66.48
2017-05-01T01:36:08.251Z,66.35
2017-05-01T01:37:08.306Z,66.20
2017-05-01T01:38:08.246Z,66.35
2017-05-01T01:39:08.211Z,66.50
2017-05-01T01:40:08.285Z,66.89
2017-05-01T01:41:08.250Z,66.66
2017-05-01T01:42:08.170Z,66.81
2017-05-01T01:43:08.215Z,66.79
2017-05-01T01:44:08.258Z,66.95
2017-05-01T01:45:08.177Z,66.92
2017-05-01T01:46:08.237Z,66.66
2017-05-01T01:47:08.380Z,66.50
2017-05-01T01:48:08.206Z,66.40
2017-05-01T01:49:08.243Z,66.74
2017-05-01T01:50:08.191Z,66.79
2017-05-01T01:51:08.216Z,67.05
2017-05-01T01:52:08.278Z,67.18
2017-05-01T01:53:08.267Z,67.33
2017-05-01T01:54:08.241Z,67.08
2017-05-01T01:55:08.251Z,66.89
2017-05-01T01:56:08.299Z,66.87
2017-05-01T01:57:08.201Z,67.00
2017-05-01T01:58:08.296Z,66.92
2017-05-01T01:59:08.203Z,67.28
2017-05-01T02:00:08.205Z,67.18
2017-05-01T02:01:08.265Z,66.77
2017-05-01T02:02:08.181Z,66.53
2017-05-01T02:03:08.371Z,66.56
2017-05-01T02:04:08.167Z,66.56
2017-05-01T02:05:08.204Z,66.48
2017-05-01T02:06:08.189Z,66.53
2017-05-01T02:07:08.170Z,66.89
2017-05-01T02:08:08.262Z,67.08
2017-05-01T02:09:08.365Z,67.23
2017-05-01T02:10:08.194Z,67.31
2017-05-01T02:11:08.270Z,67.52
2017-05-01T02:12:08.192Z,67.57
2017-05-01T02:13:08.278Z,67.72
2017-05-01T02:14:08.213Z,67.83
2017-05-01T02:15:08.251Z,68.01
2017-05-01T02:16:08.225Z,68.01
2017-05-01T02:17:08.193Z,67.88
2017-05-01T02:18:08.223Z,67.85
2017-05-01T02:19:08.265Z,67.67
2017-05-01T02:20:08.206Z,67.60
2017-05-01T02:21:08.269Z,67.60
2017-05-01T02:22:08.246Z,67.67
2017-05-01T02:23:08.222Z,67.85
2017-05-01T02:24:08.310Z,68.08
2017-05-01T02:25:08.290Z,68.04
2017-05-01T02:26:08.253Z,68.32
2017-05-01T02:27:08.259Z,68.43
2017-05-01T02:28:08.282Z,68.55
2017-05-01T02:29:08.279Z,68.94
2017-05-01T02:30:08.258Z,69.12
2017-05-01T02:31:08.233Z,69.10
2017-05-01T02:32:08.296Z,69.36
2017-05-01T02:33:08.252Z,69.34
2017-05-01T02:34:08.318Z,69.18
2017-05-01T02:35:08.287Z,69.36
2017-05-01T02:36:08.216Z,69.51
2017-05-01T02:37:08.286Z,69.70
2017-05-01T02:38:08.227Z,69.65
2017-05-01T02:39:08.268Z,69.72
2017-05-01T02:40:08.312Z,69.82
2017-05-01T02:41:08.231Z,69.77
2017-05-01T02:42:08.255Z,69.85
2017-05-01T02:43:08.259Z,69.85
2017-05-01T02:44:08.256Z,69.85
2017-05-01T02:45:08.241Z,69.80
2017-05-01T02:46:08.338Z,70.01
2017-05-01T02:47:08.334Z,69.90
2017-05-01T02:48:08.252Z,70.04
2017-05-01T02:49:08.354Z,69.90
2017-05-01T02:50:08.244Z,69.93
2017-05-01T02:51:08.342Z,69.98
2017-05-01T02:52:08.289Z,70.14
2017-05-01T02:53:08.291Z,70.11
2017-05-01T02:54:08.317Z,69.93
2017-05-01T02:55:08.327Z,70.01
2017-05-01T02:56:08.327Z,70.17
2017-05-01T02:57:08.340Z,70.21
2017-05-01T02:58:08.344Z,70.48
2017-05-01T02:59:08.329Z,70.32
2017-05-01T03:00:08.354Z,70.21
2017-05-01T03:01:08.263Z,70.35
2017-05-01T03:02:08.276Z,70.32
2017-05-01T03:03:08.230Z,70.35
2017-05-01T03:04:08.293Z,70.45
2017-05-01T03:05:08.299Z,70.09
2017-05-01T03:06:08.282Z,70.11
2017-05-01T03:07:08.273Z,70.04
2017-05-01T03:08:08.288Z,70.27
2017-05-01T03:09:08.305Z,70.53
2017-05-01T03:10:08.329Z,70.68
2017-05-01T03:11:08.320Z,71.03
2017-05-01T03:12:08.344Z,71.03
2017-05-01T03:13:08.290Z,71.23
2017-05-01T03:14:08.362Z,71.13
2017-05-01T03:15:08.321Z,71.34
2017-05-01T03:16:08.280Z,71.39
2017-05-01T03:17:08.315Z,71.31
2017-05-01T03:18:08.358Z,71.39
2017-05-01T03:19:08.332Z,71.23
2017-05-01T03:20:08.313Z,71.54
2017-05-01T03:21:08.351Z,71.62
2017-05-01T03:22:08.288Z,71.75
2017-05-01T03:23:08.294Z,71.75
2017-05-01T03:24:08.255Z,71.60
2017-05-01T03:25:08.247Z,71.73
2017-05-01T03:26:08.309Z,71.31
2017-05-01T03:27:08.274Z,71.34
2017-05-01T03:28:08.330Z,71.34
2017-05-01T03:29:08.228Z,71.31
2017-05-01T03:30:08.304Z,71.49
2017-05-01T03:31:08.263Z,71.49
2017-05-01T03:32:08.336Z,71.78
2017-05-01T03:33:08.339Z,71.94
2017-05-01T03:34:08.276Z,71.44
2017-05-01T03:35:08.359Z,71.26
2017-05-01T03:36:08.361Z,71.39
2017-05-01T03:37:08.373Z,71.57
2017-05-01T03:38:08.357Z,71.57
2017-05-01T03:39:08.361Z,71.75
2017-05-01T03:40:08.360Z,71.99
2017-05-01T03:41:08.341Z,71.99
2017-05-01T03:42:08.264Z,71.89
2017-05-01T03:43:08.241Z,71.94
2017-05-01T03:44:08.225Z,71.94
2017-05-01T03:45:08.301Z,72.07
2017-05-01T03:46:08.291Z,72.38
2017-05-01T03:47:08.274Z,72.69
2017-05-01T03:48:08.282Z,72.88
2017-05-01T03:49:08.274Z,72.90
2017-05-01T03:50:08.248Z,73.06
2017-05-01T03:51:08.313Z,72.90
2017-05-01T03:52:08.305Z,72.90
2017-05-01T03:53:08.253Z,73.16
2017-05-01T03:54:08.314Z,73.35
2017-05-01T03:55:08.331Z,73.45
2017-05-01T03:56:08.258Z,73.63
2017-05-01T03:57:08.301Z,73.89
2017-05-01T03:58:08.266Z,73.97
2017-05-01T03:59:08.321Z,74.00
2017-05-01T04:00:08.363Z,74.50
2017-05-01T04:01:08.287Z,74.40
2017-05-01T04:02:08.345Z,74.40
2017-05-01T04:03:08.340Z,74.34
2017-05-01T04:04:08.380Z,74.32
2017-05-01T04:05:08.353Z,73.82
2017-05-01T04:06:08.325Z,73.74
2017-05-01T04:07:08.310Z,73.69
2017-05-01T04:08:08.281Z,73.35
2017-05-01T04:09:08.351Z,73.32
2017-05-01T04:10:08.354Z,73.32
2017-05-01T04:11:08.313Z,72.59
2017-05-01T04:12:08.246Z,72.59
2017-05-01T04:13:08.291Z,72.61
2017-05-01T04:14:08.315Z,72.67
2017-05-01T04:15:08.313Z,72.67
2017-05-01T04:16:08.346Z,72.90
2017-05-01T04:17:08.343Z,72.90
2017-05-01T04:18:08.342Z,72.67
2017-05-01T04:19:08.287Z,72.59
2017-05-01T04:20:08.291Z,72.38
2017-05-01T04:21:08.310Z,72.53
2017-05-01T04:22:08.352Z,72.56
2017-05-01T04:23:08.335Z,72.48
2017-05-01T04:24:08.367Z,72.46
2017-05-01T04:25:08.381Z,72.61
2017-05-01T04:26:08.359Z,72.80
2017-05-01T04:27:08.327Z,72.61
2017-05-01T04:28:08.378Z,72.51
2017-05-01T04:29:08.292Z,72.22
2017-05-01T04:30:08.326Z,72.17
2017-05-01T04:31:08.322Z,72.14
2017-05-01T04:32:08.337Z,71.60
2017-05-01T04:33:08.311Z,71.73
2017-05-01T04:34:08.308Z,71.81
2017-05-01T04:35:08.288Z,71.39
2017-05-01T04:36:08.335Z,71.39
2017-05-01T04:37:08.326Z,71.42
2017-05-01T04:38:08.314Z,71.26
2017-05-01T04:39:08.285Z,71.42
2017-05-01T04:40:08.365Z,71.31
2017-05-01T04:41:08.364Z,71.23
2017-05-01T04:42:08.337Z,71.07
2017-05-01T04:43:08.362Z,70.87
2017-05-01T04:44:08.288Z,71.39
2017-05-01T04:45:08.339Z,71.39
2017-05-01T04:46:08.366Z,71.54
2017-05-01T04:47:08.318Z,71.44
2017-05-01T04:48:08.352Z,71.60
2017-05-01T04:49:08.338Z,71.57
2017-05-01T04:50:08.280Z,71.42
2017-05-01T04:51:08.280Z,71.18
2017-05-01T04:52:08.402Z,71.00
2017-05-01T04:53:08.359Z,70.43
2017-05-01T04:54:08.358Z,70.45
2017-05-01T04:55:08.320Z,70.09
2017-05-01T04:56:08.317Z,69.90
2017-05-01T04:57:08.346Z,70.06
2017-05-01T04:58:08.318Z,69.59
2017-05-01T04:59:08.296Z,69.75
2017-05-01T05:00:08.314Z,69.96
2017-05-01T05:01:08.308Z,69.57
2017-05-01T05:02:08.338Z,69.62
2017-05-01T05:03:08.300Z,69.80
2017-05-01T05:04:08.342Z,70.01
2017-05-01T05:05:08.302Z,69.26
2017-05-01T05:06:08.292Z,69.57
2017-05-01T05:07:08.383Z,69.26
2017-05-01T05:08:08.326Z,69.34
2017-05-01T05:09:08.380Z,68.84
2017-05-01T05:10:08.301Z,68.99
2017-05-01T05:11:08.342Z,68.89
2017-05-01T05:12:08.356Z,69.18
2017-05-01T05:13:08.335Z,68.55
2017-05-01T05:14:08.384Z,68.29
2017-05-01T05:15:08.398Z,68.32
2017-05-01T05:16:08.409Z,68.40
2017-05-01T05:17:08.390Z,68.40
2017-05-01T05:18:08.353Z,68.37
2017-05-01T05:19:08.401Z,68.24
2017-05-01T05:20:08.305Z,68.47
2017-05-01T05:21:08.399Z,68.22
2017-05-01T05:22:08.331Z,68.32
2017-05-01T05:23:08.361Z,67.72
2017-05-01T05:24:08.358Z,68.08
2017-05-01T05:25:08.387Z,68.08
2017-05-01T05:26:08.388Z,67.96
2017-05-01T05:27:08.372Z,67.75
2017-05-01T05:28:08.327Z,67.49
2017-05-01T05:29:08.350Z,67.60
2017-05-01T05:30:08.415Z,67.57
2017-05-01T05:31:08.382Z,67.31
2017-05-01T05:32:08.412Z,67.31
2017-05-01T05:33:08.370Z,67.36
2017-05-01T05:34:08.392Z,67.31
2017-05-01T05:35:08.347Z,66.89
2017-05-01T05:36:08.369Z,66.92
2017-05-01T05:37:08.426Z,67.10
2017-05-01T05:38:08.339Z,66.58
2017-05-01T05:39:08.340Z,66.74
2017-05-01T05:40:08.404Z,67.02
2017-05-01T05:41:08.425Z,66.40
2017-05-01T05:42:08.327Z,66.56
2017-05-01T05:43:08.419Z,65.89
2017-05-01T05:44:08.331Z,66.20
2017-05-01T05:45:08.331Z,65.81
2017-05-01T05:46:08.432Z,65.62
2017-05-01T05:47:08.425Z,65.45
2017-05-01T05:48:08.426Z,64.95
2017-05-01T05:49:08.429Z,65.24
2017-05-01T05:50:08.402Z,64.93
2017-05-01T05:51:08.411Z,64.88
2017-05-01T05:52:08.399Z,64.93
2017-05-01T05:53:08.331Z,64.95
2017-05-01T05:54:08.336Z,65.14
2017-05-01T05:55:08.376Z,65.01
2017-05-01T05:56:08.331Z,65.06
2017-05-01T05:57:08.433Z,64.42
2017-05-01T05:58:08.354Z,64.65
2017-05-01T05:59:08.353Z,64.70
2017-05-01T06:00:08.371Z,64.54
2017-05-01T06:01:08.397Z,63.62
2017-05-01T06:02:08.329Z,63.64
2017-05-01T06:03:08.344Z,62.99
2017-05-01T06:04:08.386Z,62.04
2017-05-01T06:05:08.428Z,63.46
2017-05-01T06:06:08.407Z,62.53
2017-05-01T06:07:08.396Z,61.61
2017-05-01T06:08:08.378Z,62.66
2017-05-01T06:09:08.489Z,62.74
2017-05-01T06:10:08.384Z,63.13
2017-05-01T06:11:08.385Z,63.05
2017-05-01T06:12:08.372Z,62.27
2017-05-01T06:13:08.336Z,62.63
2017-05-01T06:14:08.381Z,62.12
2017-05-01T06:15:08.361Z,61.78
2017-05-01T06:16:08.439Z,61.97
2017-05-01T06:17:08.435Z,62.38
2017-05-01T06:18:08.339Z,62.50
2017-05-01T06:19:08.411Z,62.61
2017-05-01T06:20:08.432Z,61.06
2017-05-01T06:21:08.391Z,60.86
2017-05-01T06:22:08.360Z,60.99
2017-05-01T06:23:08.339Z,60.68
2017-05-01T06:24:08.326Z,60.33
2017-05-01T06:25:08.308Z,60.45
2017-05-01T06:26:08.375Z,59.84
2017-05-01T06:27:08.361Z,59.71
2017-05-01T06:28:08.394Z,59.02
2017-05-01T06:29:08.393Z,60.50
2017-05-01T06:30:08.413Z,60.43
2017-05-01T06:31:08.351Z,60.53
2017-05-01T06:32:08.380Z,60.71
2017-05-01T06:33:08.409Z,61.04
2017-05-01T06:34:08.357Z,61.17
2017-05-01T06:35:08.390Z,60.73
2017-05-01T06:36:08.420Z,61.20
2017-05-01T06:37:08.430Z,61.35
2017-05-01T06:38:08.449Z,61.69
2017-05-01T06:39:08.426Z,61.48
2017-05-01T06:40:08.349Z,61.35
2017-05-01T06:41:08.375Z,61.38
2017-05-01T06:42:08.385Z,61.22
2017-05-01T06:43:08.409Z,60.43
2017-05-01T06:44:08.394Z,60.73
2017-05-01T06:45:08.391Z,60.48
2017-05-01T06:46:08.359Z,60.55
2017-05-01T06:47:08.391Z,60.84
2017-05-01T06:48:08.427Z,58.87
2017-05-01T06:49:08.417Z,59.37
2017-05-01T06:50:08.442Z,59.32
2017-05-01T06:51:08.390Z,60.22
2017-05-01T06:52:08.429Z,59.68
2017-05-01T06:53:08.424Z,59.92
2017-05-01T06:54:08.430Z,59.76
2017-05-01T06:55:08.373Z,59.00
2017-05-01T06:56:08.412Z,58.96
2017-05-01T06:57:08.372Z,59.76
2017-05-01T06:58:08.427Z,59.71
2017-05-01T06:59:08.458Z,60.05
2017-05-01T07:00:08.440Z,58.89
2017-05-01T07:01:08.438Z,58.79
2017-05-01T07:02:08.435Z,58.40
2017-05-01T07:03:08.358Z,58.53
2017-05-01T07:04:08.439Z,57.43
2017-05-01T07:05:08.412Z,57.46
2017-05-01T07:06:08.390Z,56.69
2017-05-01T07:07:08.417Z,56.39
2017-05-01T07:08:08.356Z,57.51
2017-05-01T07:09:08.396Z,57.08
2017-05-01T07:10:08.374Z,56.95
2017-05-01T07:11:08.369Z,56.18
2017-05-01T07:12:08.462Z,56.03
2017-05-01T07:13:08.365Z,55.67
2017-05-01T07:14:08.383Z,56.21
2017-05-01T07:15:08.448Z,58.04
2017-05-01T07:16:08.447Z,57.21
2017-05-01T07:17:08.448Z,56.65
2017-05-01T07:18:08.440Z,56.72
2017-05-01T07:19:08.455Z,56.00
2017-05-01T07:20:08.463Z,56.18
2017-05-01T07:21:08.370Z,57.28
2017-05-01T07:22:08.466Z,55.39
2017-05-01T07:23:08.455Z,55.55
2017-05-01T07:24:08.464Z,57.15
2017-05-01T07:25:08.421Z,57.05
2017-05-01T07:26:08.470Z,53.75
2017-05-01T07:27:08.448Z,53.92
2017-05-01T07:28:08.379Z,53.92
2017-05-01T07:29:08.409Z,54.12
2017-05-01T07:30:08.472Z,53.44
2017-05-01T07:31:08.414Z,53.29
2017-05-01T07:32:08.482Z,52.22
2017-05-01T07:33:08.424Z,52.25
2017-05-01T07:34:08.348Z,52.53
2017-05-01T07:35:08.381Z,52.27
2017-05-01T07:36:08.418Z,52.88
2017-05-01T07:37:08.433Z,53.16
2017-05-01T07:38:08.393Z,54.30
2017-05-01T07:39:08.436Z,51.89
2017-05-01T07:40:08.406Z,52.83
2017-05-01T07:41:08.394Z,52.73
2017-05-01T07:42:08.369Z,53.54
2017-05-01T07:43:08.399Z,53.16
2017-05-01T07:44:08.419Z,52.73
2017-05-01T07:45:08.432Z,52.93
2017-05-01T07:46:08.475Z,52.07
2017-05-01T07:47:08.481Z,52.65
2017-05-01T07:48:08.456Z,51.51
2017-05-01T07:49:08.465Z,50.10
2017-05-01T07:50:08.473Z,50.07
2017-05-01T07:51:08.398Z,50.48
2017-05-01T07:52:08.437Z,51.74
2017-05-01T07:53:08.408Z,50.18
2017-05-01T07:54:08.435Z,51.97
2017-05-01T07:55:08.423Z,56.93
2017-05-01T07:56:08.447Z,52.85
2017-05-01T07:57:08.486Z,50.98
2017-05-01T07:58:08.443Z,51.59
2017-05-01T07:59:08.470Z,52.27
2017-05-01T08:00:08.472Z,53.39
2017-05-01T08:01:08.442Z,52.10
2017-05-01T08:02:08.396Z,52.32
2017-05-01T08:03:08.406Z,51.89
2017-05-01T08:04:08.440Z,52.70
2017-05-01T08:05:08.456Z,53.18
2017-05-01T08:06:08.456Z,51.62
2017-05-01T08:07:08.423Z,51.11
2017-05-01T08:08:08.453Z,51.11
2017-05-01T08:09:08.370Z,49.14
2017-05-01T08:10:08.423Z,49.44
2017-05-01T08:11:08.406Z,52.57
2017-05-01T08:12:08.411Z,49.12
2017-05-01T08:13:08.414Z,50.27
2017-05-01T08:15:08.396Z,48.64
2017-05-01T08:16:08.397Z,46.88
2017-05-01T08:17:08.472Z,48.36
2017-05-01T08:18:08.456Z,48.23
2017-05-01T08:19:08.454Z,47.88
2017-05-01T08:20:08.475Z,47.63
2017-05-01T08:21:08.466Z,47.83
2017-05-01T08:22:08.381Z,49.02
2017-05-01T08:23:08.477Z,48.26
2017-05-01T08:24:08.420Z,48.48
2017-05-01T08:25:08.468Z,47.88
2017-05-01T08:26:08.468Z,49.06
2017-05-01T08:27:08.421Z,49.77
2017-05-01T08:28:08.418Z,48.41
2017-05-01T08:29:08.458Z,48.86
2017-05-01T08:30:08.410Z,48.51
2017-05-01T08:31:08.504Z,49.47
2017-05-01T08:32:08.477Z,51.44
2017-05-01T08:33:08.417Z,50.96
2017-05-01T08:34:08.481Z,48.44
2017-05-01T08:35:08.429Z,48.19
2017-05-01T08:36:08.469Z,49.64
2017-05-01T08:37:08.432Z,49.02
2017-05-01T08:38:08.497Z,48.97
2017-05-01T08:39:08.462Z,49.77
2017-05-01T08:40:08.405Z,49.12
2017-05-01T08:41:08.440Z,48.79
2017-05-01T08:42:08.474Z,48.89
2017-05-01T08:43:08.457Z,49.49
2017-05-01T08:44:08.449Z,50.22
2017-05-01T08:45:08.475Z,49.44
2017-05-01T08:46:08.425Z,49.60
2017-05-01T08:47:08.402Z,49.49
2017-05-01T08:48:08.492Z,50.27
2017-05-01T08:49:08.493Z,49.22
2017-05-01T08:50:08.487Z,48.74
2017-05-01T08:51:08.459Z,48.74
2017-05-01T08:52:08.403Z,48.51
2017-05-01T08:53:08.404Z,49.44
2017-05-01T08:54:08.373Z,49.87
2017-05-01T08:55:08.383Z,51.57
2017-05-01T08:56:08.386Z,50.48
2017-05-01T08:57:08.448Z,50.00
2017-05-01T08:58:08.473Z,50.35
2017-05-01T08:59:08.400Z,48.51
2017-05-01T09:00:08.412Z,47.58
2017-05-01T09:01:08.434Z,47.33
2017-05-01T09:02:08.459Z,49.49
2017-05-01T09:03:08.429Z,55.60
2017-05-01T09:04:08.518Z,50.80
2017-05-01T09:05:08.446Z,50.35
2017-05-01T09:06:08.465Z,49.52
2017-05-01T09:07:08.453Z,49.14
2017-05-01T09:08:08.481Z,49.80
2017-05-01T09:09:08.462Z,48.74
2017-05-01T09:10:08.425Z,46.58
2017-05-01T09:11:08.527Z,48.92
2017-05-01T09:12:08.527Z,46.98
2017-05-01T09:13:08.427Z,45.90
2017-05-01T09:14:08.521Z,45.45
2017-05-01T09:15:08.467Z,46.15
2017-05-01T09:16:08.499Z,46.52
2017-05-01T09:17:08.462Z,49.24
2017-05-01T09:18:08.511Z,46.78
2017-05-01T09:19:08.483Z,46.27
2017-05-01T09:20:08.483Z,46.88
2017-05-01T09:21:08.501Z,46.95
2017-05-01T09:22:08.532Z,46.35
2017-05-01T09:23:08.478Z,46.30
2017-05-01T09:24:08.443Z,49.06
2017-05-01T09:25:08.425Z,50.40
2017-05-01T09:26:08.478Z,49.22
2017-05-01T09:27:08.486Z,49.12
2017-05-01T09:28:08.492Z,49.09
2017-05-01T09:29:08.515Z,49.85
2017-05-01T09:30:08.432Z,50.27
2017-05-01T09:31:08.436Z,49.22
2017-05-01T09:32:08.474Z,48.31
2017-05-01T09:33:08.457Z,49.04
2017-05-01T09:34:08.483Z,51.69
2017-05-01T09:35:08.467Z,48.99
2017-05-01T09:36:08.475Z,48.99
2017-05-01T09:37:08.540Z,49.09
2017-05-01T09:38:08.476Z,51.89
2017-05-01T09:39:08.443Z,48.61
2017-05-01T09:40:08.460Z,48.74
2017-05-01T09:41:08.501Z,47.15
2017-05-01T09:42:08.485Z,48.34
2017-05-01T09:43:08.513Z,48.08
2017-05-01T09:44:08.545Z,48.31
2017-05-01T09:45:08.485Z,47.68
2017-05-01T09:46:08.468Z,48.41
2017-05-01T09:47:08.486Z,45.57
2017-05-01T09:48:08.539Z,47.53
2017-05-01T09:49:08.518Z,49.95
2017-05-01T09:50:08.478Z,47.65
2017-05-01T09:51:08.541Z,45.65
2017-05-01T09:52:08.547Z,46.50
2017-05-01T09:53:08.514Z,46.50
2017-05-01T09:54:08.506Z,45.75
2017-05-01T09:55:08.454Z,45.75
2017-05-01T09:56:08.544Z,45.07
2017-05-01T09:57:08.514Z,45.32
2017-05-01T09:58:08.474Z,47.48
2017-05-01T09:59:08.456Z,48.92
2017-05-01T10:00:08.538Z,46.93
2017-05-01T10:01:08.552Z,46.63
2017-05-01T10:02:08.534Z,45.73
2017-05-01T10:03:08.471Z,45.27
2017-05-01T10:04:08.476Z,46.93
2017-05-01T10:05:08.465Z,47.61
2017-05-01T10:06:08.466Z,48.44
2017-05-01T10:07:08.464Z,48.36
2017-05-01T10:08:08.450Z,47.28
2017-05-01T10:09:08.457Z,47.96
2017-05-01T10:10:08.516Z,46.58
2017-05-01T10:11:08.510Z,47.33
2017-05-01T10:12:08.439Z,46.73
2017-05-01T10:13:08.567Z,48.48
2017-05-01T10:14:08.547Z,46.02
2017-05-01T10:15:08.533Z,45.22
2017-05-01T10:16:08.537Z,48.48
2017-05-01T10:17:08.510Z,45.60
2017-05-01T10:18:08.526Z,47.28
2017-05-01T10:19:08.554Z,46.88
2017-05-01T10:20:08.469Z,44.90
2017-05-01T10:21:08.559Z,45.60
2017-05-01T10:22:08.525Z,43.97
2017-05-01T10:23:08.442Z,49.57
2017-05-01T10:24:08.459Z,44.37
2017-05-01T10:25:08.526Z,44.77
2017-05-01T10:26:08.466Z,45.50
2017-05-01T10:27:08.570Z,47.38
2017-05-01T10:28:08.529Z,47.38
2017-05-01T10:29:08.531Z,48.28
2017-05-01T10:30:08.548Z,46.98
2017-05-01T10:31:08.472Z,45.12
2017-05-01T10:32:08.461Z,46.43
2017-05-01T10:33:08.521Z,45.87
2017-05-01T10:34:08.564Z,45.05
2017-05-01T10:35:08.526Z,45.52
2017-05-01T10:36:08.494Z,45.25
2017-05-01T10:37:08.469Z,46.50
2017-05-01T10:38:08.437Z,49.57
2017-05-01T10:39:08.450Z,45.80
2017-05-01T10:40:08.469Z,48.36
2017-05-01T10:41:08.508Z,45.82
2017-05-01T10:42:08.509Z,47.71
2017-05-01T10:43:08.542Z,45.43
2017-05-01T10:44:08.492Z,45.60
2017-05-01T10:45:08.569Z,46.02
2017-05-01T10:46:08.490Z,46.75
2017-05-01T10:47:08.527Z,47.06
2017-05-01T10:48:08.549Z,45.62
2017-05-01T10:49:08.548Z,47.83
2017-05-01T10:50:08.634Z,48.08
2017-05-01T10:51:08.525Z,46.75
2017-05-01T10:52:08.494Z,46.38
2017-05-01T10:53:08.549Z,45.18
2017-05-01T10:54:08.487Z,46.23
2017-05-01T10:55:08.566Z,47.65
2017-05-01T10:56:08.462Z,44.52
2017-05-01T10:57:08.483Z,47.08
2017-05-01T10:58:08.568Z,48.28
2017-05-01T10:59:08.475Z,47.10
2017-05-01T11:00:08.484Z,49.04
2017-05-01T11:01:08.500Z,46.95
2017-05-01T11:02:08.517Z,46.63
2017-05-01T11:03:08.579Z,45.98
2017-05-01T11:04:08.567Z,46.05
2017-05-01T11:05:08.484Z,46.65
2017-05-01T11:06:08.550Z,46.20
2017-05-01T11:07:08.567Z,44.77
2017-05-01T11:08:08.542Z,46.88
2017-05-01T11:09:08.591Z,45.10
2017-05-01T11:10:08.583Z,46.07
2017-05-01T11:11:08.506Z,47.51
2017-05-01T11:12:08.520Z,46.05
2017-05-01T11:13:08.518Z,42.95
2017-05-01T11:14:08.524Z,43.33
2017-05-01T11:15:08.549Z,46.55
2017-05-01T11:16:08.551Z,45.12
2017-05-01T11:17:08.527Z,48.36
2017-05-01T11:18:08.472Z,44.57
2017-05-01T11:19:08.530Z,47.68
2017-05-01T11:20:08.470Z,43.45
2017-05-01T11:21:08.532Z,42.85
2017-05-01T11:22:08.570Z,44.20
2017-05-01T11:23:08.569Z,43.17
2017-05-01T11:24:08.561Z,42.62
2017-05-01T11:25:08.537Z,43.05
2017-05-01T11:26:08.492Z,41.53
2017-05-01T11:27:08.475Z,44.32
2017-05-01T11:28:08.585Z,44.17
2017-05-01T11:29:08.566Z,40.63
2017-05-01T11:30:08.511Z,41.95
2017-05-01T11:31:08.477Z,40.93
2017-05-01T11:32:08.479Z,42.33
2017-05-01T11:33:08.588Z,44.70
2017-05-01T11:34:08.580Z,40.38
2017-05-01T11:35:08.550Z,41.28
2017-05-01T11:36:08.597Z,41.80
2017-05-01T11:37:08.588Z,42.50
2017-05-01T11:38:08.515Z,42.70
2017-05-01T11:39:08.548Z,44.30
2017-05-01T11:40:08.599Z,43.22
2017-05-01T11:41:08.579Z,43.60
2017-05-01T11:42:08.547Z,44.97
2017-05-01T11:43:08.542Z,43.33
2017-05-01T11:44:08.467Z,43.63
2017-05-01T11:45:08.510Z,43.38
2017-05-01T11:46:08.538Z,43.75
2017-05-01T11:47:08.539Z,45.37
2017-05-01T11:48:08.537Z,46.20
2017-05-01T11:49:08.500Z,46.38
2017-05-01T11:50:08.466Z,44.70
2017-05-01T11:51:08.552Z,43.70
2017-05-01T11:52:08.512Z,44.15
2017-05-01T11:53:08.579Z,45.55
2017-05-01T11:54:08.515Z,43.80
2017-05-01T11:55:08.509Z,43.02
2017-05-01T11:56:08.543Z,44.15
2017-05-01T11:57:08.585Z,44.77
2017-05-01T11:58:08.584Z,43.47
2017-05-01T11:59:08.523Z,42.45
2017-05-01T12:00:08.563Z,43.38
2017-05-01T12:01:08.495Z,46.52
2017-05-01T12:02:08.495Z,45.48
2017-05-01T12:03:08.526Z,44.55
2017-05-01T12:04:08.577Z,43.63
2017-05-01T12:05:08.527Z,44.60
2017-05-01T12:06:08.595Z,44.62
2017-05-01T12:07:08.609Z,45.12
2017-05-01T12:08:08.566Z,42.95
2017-05-01T12:09:08.564Z,43.77
2017-05-01T12:10:08.541Z,46.02
2017-05-01T12:11:08.561Z,45.45
2017-05-01T12:12:08.552Z,45.20
2017-05-01T12:13:08.583Z,46.15
2017-05-01T12:14:08.512Z,45.60
2017-05-01T12:15:08.530Z,44.05
2017-05-01T12:16:08.578Z,46.38
2017-05-01T12:17:08.624Z,47.45
2017-05-01T12:18:08.557Z,45.80
2017-05-01T12:19:08.530Z,46.15
2017-05-01T12:20:08.519Z,48.31
2017-05-01T12:21:08.520Z,45.57
2017-05-01T12:22:08.576Z,44.50
2017-05-01T12:23:08.535Z,44.90
2017-05-01T12:24:08.559Z,44.93
2017-05-01T12:25:08.568Z,44.45
2017-05-01T12:26:08.573Z,45.45
2017-05-01T12:27:08.574Z,45.95
2017-05-01T12:28:08.586Z,46.45
2017-05-01T12:29:08.592Z,45.52
2017-05-01T12:30:08.537Z,46.38
2017-05-01T12:31:08.555Z,44.72
2017-05-01T12:32:08.581Z,46.81
2017-05-01T12:33:08.552Z,45.07
2017-05-01T12:34:08.534Z,44.93
2017-05-01T12:35:08.503Z,43.47
2017-05-01T12:36:08.533Z,42.87
2017-05-01T12:37:08.498Z,44.27
2017-05-01T12:38:08.522Z,42.97
2017-05-01T12:39:08.590Z,44.30
2017-05-01T12:40:08.587Z,43.75
2017-05-01T12:41:08.583Z,41.15
2017-05-01T12:42:08.516Z,43.50
2017-05-01T12:43:08.579Z,42.35
2017-05-01T12:44:08.537Z,43.30
2017-05-01T12:45:08.588Z,42.85
2017-05-01T12:46:08.564Z,43.57
2017-05-01T12:47:08.574Z,44.39
2017-05-01T12:48:08.550Z,44.60
2017-05-01T12:49:08.592Z,44.25
2017-05-01T12:50:08.532Z,46.00
2017-05-01T12:51:08.578Z,42.92
2017-05-01T12:52:08.509Z,43.27
2017-05-01T12:53:08.605Z,45.32